Time;durP1;ratioP1;P1;durP2;ratioP2;P2;SDS_P1;SDS_P2;PMS_P1;PMS_P2;Temp;Humidity;BMP_temperature;BMP_pressure;BME280_temperature;BME280_humidity;BME280_pressure;Samples;Min_cycle;Max_cycle;Signal;HPM_P1;HPM_P2
2022/07/12 00:01:36;;;;;;;1.30;1.20;;;14.00;99.90;;;;;;5012481;28;20532;-70
2022/07/12 00:04:03;;;;;;;1.80;1.10;;;13.90;99.90;;;;;;5014237;28;20207;-70
2022/07/12 00:06:31;;;;;;;2.07;1.10;;;13.90;99.90;;;;;;5014523;28;21097;-69
2022/07/12 00:08:58;;;;;;;1.60;1.17;;;13.90;99.90;;;;;;5013106;28;20211;-70
2022/07/12 00:11:25;;;;;;;2.73;1.20;;;14.00;99.90;;;;;;5013399;28;20238;-70
2022/07/12 00:13:52;;;;;;;1.33;1.23;;;13.90;99.90;;;;;;5014404;28;20651;-70
2022/07/12 00:16:18;;;;;;;4.23;1.40;;;13.90;99.90;;;;;;5013516;28;20207;-70
2022/07/12 00:18:45;;;;;;;1.83;1.20;;;13.90;99.90;;;;;;5007839;28;20222;-70
2022/07/12 00:21:12;;;;;;;1.47;1.03;;;13.90;99.90;;;;;;5012341;28;20261;-70
2022/07/12 00:23:40;;;;;;;2.20;1.17;;;13.90;99.90;;;;;;5013184;28;20647;-69
2022/07/12 00:26:07;;;;;;;3.57;1.03;;;13.90;99.90;;;;;;5013627;28;20246;-69
2022/07/12 00:28:33;;;;;;;1.83;1.07;;;13.90;99.90;;;;;;5014201;28;20215;-69
2022/07/12 00:31:00;;;;;;;2.90;1.10;;;13.90;99.90;;;;;;5013314;28;20479;-70
2022/07/12 00:33:28;;;;;;;2.60;1.30;;;13.90;99.90;;;;;;5013284;28;20578;-71
2022/07/12 00:35:54;;;;;;;1.70;0.97;;;13.90;99.90;;;;;;5014501;28;20307;-71
2022/07/12 00:38:22;;;;;;;1.90;1.00;;;13.80;99.90;;;;;;5013532;28;20718;-70
2022/07/12 00:40:50;;;;;;;2.03;1.07;;;13.80;99.90;;;;;;5012643;28;20202;-69
2022/07/12 00:43:17;;;;;;;1.67;1.43;;;13.80;99.90;;;;;;5014117;28;20215;-69
2022/07/12 00:45:44;;;;;;;2.97;1.47;;;13.70;99.90;;;;;;5013870;28;20687;-69
2022/07/12 00:48:11;;;;;;;1.10;1.10;;;13.70;99.90;;;;;;5012982;28;20207;-70
2022/07/12 00:50:38;;;;;;;3.67;1.30;;;13.70;99.90;;;;;;5007207;28;20221;-69
2022/07/12 00:53:05;;;;;;;2.73;1.30;;;13.70;99.90;;;;;;5013434;28;20211;-69
2022/07/12 00:55:32;;;;;;;3.33;1.17;;;13.70;99.90;;;;;;5012144;28;20207;-69
2022/07/12 00:58:00;;;;;;;2.40;1.10;;;13.60;99.90;;;;;;5013808;28;20235;-69
2022/07/12 01:00:29;;;;;;;4.60;1.50;;;13.60;99.90;;;;;;5012270;28;20215;-69
2022/07/12 01:02:57;;;;;;;1.63;1.40;;;13.60;99.90;;;;;;5014959;28;20215;-69
2022/07/12 01:05:24;;;;;;;3.00;1.33;;;13.60;99.90;;;;;;5014417;28;20203;-69
2022/07/12 01:07:52;;;;;;;2.00;1.20;;;13.60;99.90;;;;;;5015074;28;20215;-69
2022/07/12 01:10:18;;;;;;;2.03;1.40;;;13.60;99.90;;;;;;5014597;28;20208;-68
2022/07/12 01:12:46;;;;;;;3.10;1.43;;;13.60;99.90;;;;;;5013518;28;20211;-69
2022/07/12 01:15:14;;;;;;;1.63;1.30;;;13.60;99.90;;;;;;5014654;28;20215;-69
2022/07/12 01:17:42;;;;;;;1.70;1.60;;;13.60;99.90;;;;;;5013035;28;20203;-69
2022/07/12 01:20:09;;;;;;;2.03;1.50;;;13.50;99.90;;;;;;5014682;28;20739;-69
2022/07/12 01:22:41;;;;;;;2.63;1.50;;;13.50;99.90;;;;;;5011619;28;20213;-69
2022/07/12 01:25:10;;;;;;;2.10;1.43;;;13.50;99.90;;;;;;5014402;28;20985;-69
2022/07/12 01:27:38;;;;;;;2.27;1.40;;;13.50;99.90;;;;;;5011918;28;20211;-69
2022/07/12 01:30:06;;;;;;;1.63;1.40;;;13.60;99.90;;;;;;5012875;28;20219;-69
2022/07/12 01:32:34;;;;;;;2.70;1.30;;;13.50;99.90;;;;;;5013631;28;20211;-69
2022/07/12 01:35:02;;;;;;;1.60;1.50;;;13.50;99.90;;;;;;5011355;28;20200;-69
2022/07/12 01:37:31;;;;;;;1.70;1.60;;;13.60;99.90;;;;;;5004303;28;20207;-70
2022/07/12 01:39:59;;;;;;;1.53;1.30;;;13.60;99.90;;;;;;5013537;28;20211;-69
2022/07/12 01:42:29;;;;;;;2.67;1.50;;;13.50;99.90;;;;;;5001851;28;20199;-69
2022/07/12 01:44:56;;;;;;;3.07;1.50;;;13.60;99.90;;;;;;5013846;28;20207;-69
2022/07/12 01:47:27;;;;;;;3.63;1.40;;;13.50;99.90;;;;;;5006989;28;20215;-69
2022/07/12 01:49:54;;;;;;;4.17;1.90;;;13.50;99.90;;;;;;5007616;28;20211;-70
2022/07/12 01:52:21;;;;;;;3.37;1.77;;;13.50;99.90;;;;;;5000234;28;20228;-70
2022/07/12 01:54:48;;;;;;;4.37;1.60;;;13.50;99.90;;;;;;5014260;28;20215;-69
2022/07/12 01:57:15;;;;;;;2.23;1.77;;;13.50;99.90;;;;;;5013447;28;20207;-69
2022/07/12 01:59:44;;;;;;;2.20;1.90;;;13.50;99.90;;;;;;5014083;28;20204;-69
2022/07/12 02:02:11;;;;;;;3.33;2.07;;;13.50;99.90;;;;;;5013767;28;20207;-69
2022/07/12 02:04:38;;;;;;;2.80;1.53;;;13.50;99.90;;;;;;5013939;28;20210;-70
2022/07/12 02:07:05;;;;;;;5.53;1.60;;;13.50;99.90;;;;;;5014056;28;20207;-69
2022/07/12 02:09:32;;;;;;;1.90;1.70;;;13.50;99.90;;;;;;5014066;28;20282;-69
2022/07/12 02:12:00;;;;;;;3.37;2.00;;;13.50;99.90;;;;;;5013751;28;20698;-69
2022/07/12 02:14:27;;;;;;;2.47;1.63;;;13.40;99.90;;;;;;5013127;28;20203;-68
2022/07/12 02:16:55;;;;;;;3.63;1.73;;;13.50;99.90;;;;;;5017816;28;20207;-69
2022/07/12 02:19:22;;;;;;;2.23;1.80;;;13.40;99.90;;;;;;5016556;28;20218;-69
2022/07/12 02:21:49;;;;;;;2.63;2.10;;;13.50;99.90;;;;;;5017978;28;20211;-69
2022/07/12 02:24:15;;;;;;;4.40;1.90;;;13.50;99.90;;;;;;5017191;28;20230;-69
2022/07/12 02:26:43;;;;;;;3.23;1.70;;;13.50;99.90;;;;;;5016899;28;20231;-70
2022/07/12 02:29:10;;;;;;;4.20;1.67;;;13.50;99.90;;;;;;5016288;28;20294;-69
2022/07/12 02:31:37;;;;;;;2.27;2.07;;;13.60;99.90;;;;;;5015947;28;20234;-70
2022/07/12 02:34:06;;;;;;;2.73;1.80;;;13.60;99.90;;;;;;5016678;28;20212;-69
2022/07/12 02:36:33;;;;;;;6.00;1.90;;;13.70;99.90;;;;;;5017369;28;20418;-69
2022/07/12 02:39:02;;;;;;;4.20;1.70;;;13.70;99.90;;;;;;5016812;28;20214;-69
2022/07/12 02:41:29;;;;;;;2.70;2.00;;;13.70;99.90;;;;;;5016915;28;20235;-69
2022/07/12 02:43:56;;;;;;;1.70;1.60;;;13.80;99.90;;;;;;5015607;28;20215;-69
2022/07/12 02:46:23;;;;;;;3.83;1.90;;;13.80;99.90;;;;;;5016279;28;20214;-70
2022/07/12 02:48:49;;;;;;;3.00;1.90;;;13.90;99.90;;;;;;5017319;28;20544;-69
2022/07/12 02:51:18;;;;;;;2.27;1.63;;;13.90;99.90;;;;;;5016468;28;20234;-70
2022/07/12 02:53:45;;;;;;;2.73;2.10;;;13.90;99.90;;;;;;5016239;28;20215;-70
2022/07/12 02:56:12;;;;;;;4.07;1.60;;;13.90;99.90;;;;;;5016214;28;20601;-70
2022/07/12 02:58:38;;;;;;;2.83;1.60;;;13.90;99.90;;;;;;5016225;28;20218;-70
2022/07/12 03:01:06;;;;;;;1.80;1.70;;;13.90;99.90;;;;;;5017236;28;20261;-69
2022/07/12 03:03:32;;;;;;;2.87;1.97;;;14.00;99.90;;;;;;5016494;28;20215;-69
2022/07/12 03:05:59;;;;;;;2.80;1.90;;;14.00;99.90;;;;;;5014794;28;20215;-70
2022/07/12 03:08:27;;;;;;;2.93;1.77;;;14.00;99.90;;;;;;5016282;28;20203;-69
2022/07/12 03:10:54;;;;;;;2.63;1.80;;;14.00;99.90;;;;;;5016552;28;20207;-69
2022/07/12 03:13:21;;;;;;;4.13;2.10;;;14.10;99.90;;;;;;5015119;28;20204;-69
2022/07/12 03:15:49;;;;;;;2.53;2.03;;;14.10;99.90;;;;;;5014232;28;20286;-69
2022/07/12 03:18:17;;;;;;;2.70;1.83;;;14.10;99.90;;;;;;5016251;28;20238;-69
2022/07/12 03:20:43;;;;;;;4.13;2.30;;;14.10;99.90;;;;;;5015186;28;20289;-69
2022/07/12 03:23:10;;;;;;;2.47;2.13;;;14.10;99.90;;;;;;5014621;28;20214;-69
2022/07/12 03:25:38;;;;;;;4.90;1.70;;;14.20;99.90;;;;;;5014946;28;20725;-70
2022/07/12 03:28:05;;;;;;;2.43;1.70;;;14.20;99.90;;;;;;5002681;28;20207;-69
2022/07/12 03:30:32;;;;;;;2.30;2.10;;;14.20;99.90;;;;;;5007085;28;20219;-69
2022/07/12 03:32:58;;;;;;;1.80;1.70;;;14.20;99.90;;;;;;5015422;28;20227;-69
2022/07/12 03:35:25;;;;;;;2.83;1.50;;;14.20;99.90;;;;;;5016024;28;20207;-69
2022/07/12 03:37:53;;;;;;;2.87;2.07;;;14.20;99.90;;;;;;5015485;28;20215;-70
2022/07/12 03:40:22;;;;;;;2.13;1.90;;;14.20;99.90;;;;;;5015079;28;20212;-69
2022/07/12 03:42:52;;;;;;;3.63;2.00;;;14.30;99.90;;;;;;5015537;28;20679;-70
2022/07/12 03:45:19;;;;;;;3.03;1.83;;;14.30;99.90;;;;;;5015824;28;20211;-69
2022/07/12 03:47:46;;;;;;;3.47;1.93;;;14.30;99.90;;;;;;5014937;28;20206;-69
2022/07/12 03:50:14;;;;;;;4.50;2.60;;;14.30;99.90;;;;;;5015180;28;20860;-70
2022/07/12 03:52:42;;;;;;;4.83;2.07;;;14.30;99.90;;;;;;5015102;28;20235;-70
2022/07/12 03:55:09;;;;;;;2.37;2.17;;;14.30;99.90;;;;;;5014618;28;20599;-70
2022/07/12 03:57:37;;;;;;;4.40;2.30;;;14.40;99.90;;;;;;5015672;28;20207;-70
2022/07/12 04:00:09;;;;;;;3.77;1.80;;;14.40;99.90;;;;;;5014981;28;20273;-69
2022/07/12 04:02:37;;;;;;;1.97;1.70;;;14.40;99.90;;;;;;5001410;28;20226;-69
2022/07/12 04:05:04;;;;;;;3.63;2.43;;;14.50;99.90;;;;;;5015151;28;20223;-70
2022/07/12 04:07:31;;;;;;;3.43;2.20;;;14.50;99.90;;;;;;5009630;28;20211;-69
2022/07/12 04:09:58;;;;;;;4.97;2.20;;;14.50;99.90;;;;;;5006647;28;20207;-69
2022/07/12 04:12:25;;;;;;;1.90;1.80;;;14.50;99.90;;;;;;5013604;28;20248;-69
2022/07/12 04:14:51;;;;;;;5.30;2.07;;;14.50;99.90;;;;;;5005093;28;20207;-69
2022/07/12 04:17:19;;;;;;;4.87;2.20;;;14.60;99.90;;;;;;5013267;28;20218;-69
2022/07/12 04:19:46;;;;;;;5.87;2.20;;;14.60;99.90;;;;;;5015277;28;20206;-70
2022/07/12 04:22:13;;;;;;;2.50;2.23;;;14.60;99.90;;;;;;5015256;28;20215;-70
2022/07/12 04:24:40;;;;;;;10.17;2.60;;;14.70;99.90;;;;;;5012068;28;20203;-69
2022/07/12 04:27:06;;;;;;;5.23;2.47;;;14.70;99.90;;;;;;5014283;28;20207;-69
2022/07/12 04:29:33;;;;;;;4.20;2.00;;;14.70;99.90;;;;;;5013270;28;20214;-69
2022/07/12 04:32:00;;;;;;;4.80;1.90;;;14.80;99.90;;;;;;5006146;28;20227;-69
2022/07/12 04:34:28;;;;;;;3.20;2.40;;;14.70;99.90;;;;;;5014471;28;20588;-69
2022/07/12 04:36:55;;;;;;;4.73;2.20;;;14.70;99.90;;;;;;5014030;28;20230;-69
2022/07/12 04:39:22;;;;;;;4.20;2.67;;;14.80;99.90;;;;;;5015021;28;20322;-69
2022/07/12 04:41:49;;;;;;;2.73;2.40;;;14.80;99.90;;;;;;5014995;28;20215;-69
2022/07/12 04:44:16;;;;;;;3.90;2.50;;;14.90;99.90;;;;;;5014033;28;20239;-70
2022/07/12 04:46:42;;;;;;;5.23;2.57;;;14.90;99.90;;;;;;5013879;28;20222;-70
2022/07/12 04:49:09;;;;;;;4.63;2.87;;;14.90;99.90;;;;;;5003484;28;20207;-69
2022/07/12 04:51:37;;;;;;;4.20;2.43;;;14.90;99.90;;;;;;5013827;28;20277;-69
2022/07/12 04:54:04;;;;;;;3.73;2.77;;;14.90;99.90;;;;;;5001060;28;20581;-68
2022/07/12 04:56:31;;;;;;;4.00;3.03;;;15.00;99.90;;;;;;5012875;28;20208;-69
2022/07/12 04:58:58;;;;;;;4.63;2.87;;;15.00;99.90;;;;;;5013837;28;20204;-69
2022/07/12 05:01:25;;;;;;;5.63;2.30;;;15.00;99.90;;;;;;5013423;28;20215;-70
2022/07/12 05:03:51;;;;;;;4.90;3.13;;;15.10;99.90;;;;;;5014213;28;20207;-70
2022/07/12 05:06:18;;;;;;;4.37;2.87;;;15.10;99.90;;;;;;5013306;28;20222;-69
2022/07/12 05:08:46;;;;;;;3.73;2.70;;;15.10;99.90;;;;;;5014030;28;20209;-69
2022/07/12 05:11:13;;;;;;;3.97;2.70;;;15.10;99.90;;;;;;5013812;28;20215;-69
2022/07/12 05:13:40;;;;;;;4.17;2.33;;;15.20;99.90;;;;;;5013734;28;20310;-70
2022/07/12 05:16:08;;;;;;;4.77;2.80;;;15.20;99.90;;;;;;5013723;28;20211;-71
2022/07/12 05:18:35;;;;;;;2.60;2.40;;;15.30;99.90;;;;;;5013578;28;20270;-69
2022/07/12 05:21:03;;;;;;;7.77;2.50;;;15.30;99.90;;;;;;5008984;28;20290;-69
2022/07/12 05:23:30;;;;;;;8.13;2.60;;;15.40;99.90;;;;;;5013890;28;20203;-68
2022/07/12 05:25:58;;;;;;;4.70;2.67;;;15.40;99.90;;;;;;5013986;28;20243;-69
2022/07/12 05:28:25;;;;;;;6.43;2.83;;;15.40;99.90;;;;;;5013938;28;20226;-70
2022/07/12 05:30:52;;;;;;;4.00;3.20;;;15.50;99.90;;;;;;5010606;28;20218;-69
2022/07/12 05:33:18;;;;;;;7.70;2.13;;;15.60;99.90;;;;;;5014661;28;20230;-68
2022/07/12 05:35:45;;;;;;;4.73;2.17;;;15.70;99.90;;;;;;5013273;28;20213;-70
2022/07/12 05:38:12;;;;;;;2.63;2.20;;;15.80;99.90;;;;;;5012729;28;20210;-70
2022/07/12 05:40:39;;;;;;;3.03;2.13;;;15.80;99.90;;;;;;5011492;28;20670;-69
2022/07/12 05:43:07;;;;;;;2.77;2.23;;;15.90;99.90;;;;;;5014376;28;20214;-69
2022/07/12 05:45:33;;;;;;;2.10;1.90;;;16.00;99.90;;;;;;5000739;28;20313;-69
2022/07/12 05:48:00;;;;;;;3.90;1.97;;;16.10;99.90;;;;;;5016455;28;20214;-69
2022/07/12 05:50:27;;;;;;;2.57;2.07;;;16.10;99.90;;;;;;5015813;28;20203;-70
2022/07/12 05:55:38;;;;;;;3.23;1.80;;;16.20;99.90;;;;;;5015330;28;20210;-69
2022/07/12 05:58:05;;;;;;;5.53;2.30;;;16.20;99.90;;;;;;5018056;28;20229;-68
2022/07/12 06:00:33;;;;;;;3.40;1.90;;;16.30;99.90;;;;;;5014490;28;20207;-69
2022/07/12 06:03:00;;;;;;;2.90;1.50;;;16.30;99.90;;;;;;5016087;28;20743;-69
2022/07/12 06:05:27;;;;;;;4.27;1.87;;;16.30;99.90;;;;;;5017161;28;20218;-68
2022/07/12 06:07:54;;;;;;;5.90;1.70;;;16.40;99.90;;;;;;5014855;28;20227;-69
2022/07/12 06:10:21;;;;;;;3.17;1.83;;;16.40;99.90;;;;;;5016338;28;20217;-70
2022/07/12 06:12:48;;;;;;;2.30;1.50;;;16.50;99.90;;;;;;5016988;28;20702;-71
2022/07/12 06:15:15;;;;;;;2.20;1.70;;;16.50;99.90;;;;;;5016112;28;20215;-69
2022/07/12 06:17:44;;;;;;;3.23;1.80;;;16.50;99.90;;;;;;5014745;28;20231;-69
2022/07/12 06:20:12;;;;;;;2.93;1.60;;;16.50;99.90;;;;;;5016433;28;20211;-70
2022/07/12 06:22:38;;;;;;;1.73;1.50;;;16.60;99.90;;;;;;5015306;28;20195;-70
2022/07/12 06:25:07;;;;;;;1.80;1.33;;;16.60;99.90;;;;;;5014663;28;20247;-67
2022/07/12 06:27:34;;;;;;;4.30;1.60;;;16.60;99.90;;;;;;5015912;28;20226;-70
2022/07/12 06:30:00;;;;;;;2.23;1.53;;;16.60;99.90;;;;;;5016954;28;20207;-69
2022/07/12 06:32:27;;;;;;;2.67;1.60;;;16.70;99.90;;;;;;5015871;28;20234;-69
2022/07/12 06:34:56;;;;;;;1.83;1.40;;;16.70;99.90;;;;;;5016512;28;20218;-70
2022/07/12 06:37:23;;;;;;;1.67;1.37;;;16.90;99.90;;;;;;5016464;28;20571;-69
2022/07/12 06:39:50;;;;;;;2.33;1.20;;;17.00;99.90;;;;;;5016691;28;20207;-70
2022/07/12 06:42:17;;;;;;;1.83;1.30;;;17.20;99.90;;;;;;5016551;28;20207;-68
2022/07/12 06:44:43;;;;;;;1.80;1.33;;;17.30;99.90;;;;;;5016320;28;20219;-69
2022/07/12 06:47:10;;;;;;;3.10;1.20;;;17.50;99.90;;;;;;5015455;28;20664;-68
2022/07/12 06:49:37;;;;;;;2.53;1.20;;;17.60;99.90;;;;;;5016677;28;20253;-69
2022/07/12 06:52:06;;;;;;;7.10;1.60;;;17.80;99.90;;;;;;5015700;28;20207;-69
2022/07/12 06:54:33;;;;;;;2.25;1.10;;;17.90;99.90;;;;;;5016296;28;20203;-70
2022/07/12 06:57:00;;;;;;;4.60;1.00;;;18.00;99.90;;;;;;5016455;28;20212;-70
2022/07/12 06:59:27;;;;;;;3.88;1.00;;;18.10;99.90;;;;;;5015754;28;20215;-69
2022/07/12 07:01:55;;;;;;;2.23;1.20;;;18.10;99.90;;;;;;5014221;28;20219;-70
2022/07/12 07:04:22;;;;;;;2.80;1.20;;;18.20;99.90;;;;;;5011687;28;20207;-69
2022/07/12 07:06:49;;;;;;;1.77;1.40;;;18.30;99.90;;;;;;5016955;28;20569;-71
2022/07/12 07:09:17;;;;;;;1.05;0.85;;;18.30;99.90;;;;;;5014860;28;20219;-69
2022/07/12 07:11:44;;;;;;;2.30;0.90;;;18.30;99.90;;;;;;5016011;28;20215;-69
2022/07/12 07:14:11;;;;;;;1.92;0.85;;;18.40;99.90;;;;;;5011721;28;20239;-70
2022/07/12 07:16:38;;;;;;;1.25;0.70;;;18.50;99.90;;;;;;5009863;28;20204;-69
2022/07/12 07:19:06;;;;;;;1.13;0.95;;;18.50;99.90;;;;;;5009596;28;20574;-69
2022/07/12 07:21:33;;;;;;;1.33;0.93;;;18.50;99.90;;;;;;5014584;28;20253;-69
2022/07/12 07:24:00;;;;;;;0.80;0.80;;;18.60;99.90;;;;;;5015089;28;20215;-69
2022/07/12 07:26:28;;;;;;;5.30;0.80;;;18.80;99.90;;;;;;5014875;28;20245;-70
2022/07/12 07:31:39;;;;;;;2.88;0.80;;;18.90;99.90;;;;;;5012261;28;20190;-70
2022/07/12 07:34:06;;;;;;;2.13;0.90;;;19.00;99.90;;;;;;5015652;28;20230;-69
2022/07/12 07:36:33;;;;;;;2.58;0.93;;;19.10;99.90;;;;;;5015222;28;20647;-69
2022/07/12 07:39:00;;;;;;;2.05;0.70;;;19.20;99.90;;;;;;5013953;28;20210;-70
2022/07/12 07:41:28;;;;;;;3.53;0.88;;;19.20;99.90;;;;;;5015578;28;20271;-69
2022/07/12 07:43:55;;;;;;;2.65;1.00;;;19.30;99.90;;;;;;5014839;28;20218;-70
2022/07/12 07:46:22;;;;;;;2.35;0.80;;;19.30;99.90;;;;;;5014754;28;20601;-69
2022/07/12 07:48:49;;;;;;;4.95;1.02;;;19.30;99.90;;;;;;5013155;28;20207;-70
2022/07/12 07:51:15;;;;;;;1.42;1.00;;;19.40;99.90;;;;;;5015013;28;20208;-70
2022/07/12 07:53:42;;;;;;;1.10;0.93;;;19.60;99.90;;;;;;5013808;28;21057;-71
2022/07/12 07:56:09;;;;;;;3.40;1.17;;;19.60;99.90;;;;;;5015319;28;20211;-70
2022/07/12 07:58:37;;;;;;;1.83;1.00;;;19.60;99.90;;;;;;5014498;28;20261;-70
2022/07/12 08:01:04;;;;;;;2.30;0.90;;;19.60;99.90;;;;;;5011899;28;20207;-70
2022/07/12 08:03:30;;;;;;;1.60;1.20;;;19.60;99.90;;;;;;5009162;28;20200;-69
2022/07/12 08:05:58;;;;;;;2.28;1.00;;;19.60;99.90;;;;;;5002894;28;20212;-69
2022/07/12 08:08:25;;;;;;;0.80;0.80;;;19.60;99.90;;;;;;5015565;28;20215;-69
2022/07/12 08:10:52;;;;;;;1.48;0.90;;;19.80;99.90;;;;;;5014341;28;20211;-69
2022/07/12 08:13:19;;;;;;;1.10;1.00;;;19.80;99.90;;;;;;5013345;28;20591;-69
2022/07/12 08:15:48;;;;;;;1.15;1.05;;;20.00;99.90;;;;;;5010962;28;20223;-68
2022/07/12 08:18:14;;;;;;;2.83;0.90;;;20.20;99.90;;;;;;5004353;28;20211;-69
2022/07/12 08:20:41;;;;;;;1.17;0.98;;;20.30;99.90;;;;;;5012905;28;20574;-68
2022/07/12 08:23:08;;;;;;;0.60;0.60;;;20.50;99.90;;;;;;5014390;28;20211;-69
2022/07/12 08:25:35;;;;;;;1.88;0.80;;;20.50;99.90;;;;;;5001126;28;20719;-69
2022/07/12 08:28:02;;;;;;;1.83;1.13;;;20.50;99.90;;;;;;5013833;28;20212;-68
2022/07/12 08:30:29;;;;;;;1.13;0.90;;;20.50;99.90;;;;;;5010279;28;20268;-69
2022/07/12 08:32:57;;;;;;;0.75;0.70;;;20.30;99.90;;;;;;5014775;28;20569;-68
2022/07/12 08:35:24;;;;;;;0.90;0.90;;;20.30;99.90;;;;;;5014873;28;20621;-68
2022/07/12 08:37:51;;;;;;;2.05;0.82;;;20.30;99.90;;;;;;5013780;28;20239;-69
2022/07/12 08:40:17;;;;;;;2.83;1.02;;;20.40;99.90;;;;;;5013077;28;20204;-70
2022/07/12 08:42:47;;;;;;;1.98;1.38;;;20.50;99.90;;;;;;5015080;28;20207;-70
2022/07/12 08:45:14;;;;;;;2.55;1.30;;;20.70;99.90;;;;;;5010765;28;20224;-69
2022/07/12 08:47:41;;;;;;;3.72;0.90;;;20.80;99.90;;;;;;5014039;28;20675;-70
2022/07/12 08:50:14;;;;;;;2.10;1.08;;;20.90;99.90;;;;;;5013337;28;20218;-68
2022/07/12 08:52:42;;;;;;;1.05;0.93;;;20.90;99.90;;;;;;5002109;28;20203;-69
2022/07/12 08:55:21;;;;;;;4.85;0.90;;;21.00;99.90;;;;;;5013580;28;20659;-70
2022/07/12 08:57:48;;;;;;;1.05;0.82;;;21.00;99.90;;;;;;5007095;28;20219;-70
2022/07/12 09:00:15;;;;;;;1.17;0.90;;;21.00;99.90;;;;;;5015983;28;20218;-71
2022/07/12 09:02:50;;;;;;;0.90;0.90;;;21.10;99.90;;;;;;5009125;28;20679;-70
2022/07/12 09:05:19;;;;;;;1.15;1.05;;;21.20;99.90;;;;;;5012374;28;20648;-69
2022/07/12 09:07:47;;;;;;;1.40;1.08;;;21.20;99.90;;;;;;5013448;28;20210;-69
2022/07/12 09:10:15;;;;;;;1.15;1.05;;;21.30;99.90;;;;;;5012394;28;20215;-70
2022/07/12 09:12:42;;;;;;;1.30;0.73;;;21.30;99.90;;;;;;5012245;28;20211;-69
2022/07/12 09:15:17;;;;;;;2.50;0.95;;;21.40;99.90;;;;;;5011625;28;20562;-69
2022/07/12 09:17:56;;;;;;;1.55;0.70;;;21.50;99.90;;;;;;5011911;28;20237;-69
2022/07/12 09:20:25;;;;;;;2.65;1.30;;;21.60;99.90;;;;;;5010741;28;20207;-69
2022/07/12 09:22:54;;;;;;;1.00;1.00;;;21.70;99.90;;;;;;5011829;28;20210;-69
2022/07/12 09:25:21;;;;;;;2.60;0.70;;;21.60;99.90;;;;;;5010903;28;20329;-69
2022/07/12 09:27:56;;;;;;;2.30;0.98;;;21.60;99.90;;;;;;5012442;28;20975;-71
2022/07/12 09:30:24;;;;;;;0.80;0.80;;;21.70;99.90;;;;;;5009584;28;20265;-69
2022/07/12 09:38:25;;;;;;;1.38;0.70;;;21.70;99.90;;;;;;5013946;28;20206;-71
2022/07/12 09:40:52;;;;;;;1.83;0.95;;;21.70;99.90;;;;;;5013550;28;20219;-68
2022/07/12 09:43:20;;;;;;;0.85;0.70;;;21.60;99.90;;;;;;5013104;28;20211;-69
2022/07/12 09:45:48;;;;;;;1.95;0.65;;;21.50;99.90;;;;;;5011526;28;20227;-69
2022/07/12 09:48:16;;;;;;;2.40;1.08;;;21.50;99.90;;;;;;5012748;28;20269;-69
2022/07/12 09:50:48;;;;;;;3.05;0.70;;;21.50;99.90;;;;;;5011954;28;20203;-69
2022/07/12 09:53:21;;;;;;;2.05;0.98;;;21.60;99.90;;;;;;5012026;28;20215;-69
2022/07/12 09:55:51;;;;;;;0.70;0.70;;;21.60;99.90;;;;;;5013229;28;20199;-69
2022/07/12 09:58:24;;;;;;;0.75;0.75;;;21.60;99.90;;;;;;5013325;28;20238;-68
2022/07/12 10:00:53;;;;;;;4.32;0.90;;;21.70;99.90;;;;;;5013913;28;20212;-71
2022/07/12 10:03:23;;;;;;;4.55;1.02;;;21.70;99.90;;;;;;5013296;28;20230;-70
2022/07/12 10:05:53;;;;;;;1.77;0.90;;;21.70;99.90;;;;;;5011684;28;20217;-69
2022/07/12 10:08:21;;;;;;;3.17;0.90;;;21.60;99.90;;;;;;5012036;28;20203;-70
2022/07/12 10:10:49;;;;;;;2.97;0.80;;;21.60;99.90;;;;;;5013254;28;20208;-69
2022/07/12 10:13:18;;;;;;;1.63;1.10;;;21.50;99.90;;;;;;5012798;28;20679;-70
2022/07/12 10:15:46;;;;;;;1.52;0.90;;;21.40;99.90;;;;;;5013726;28;20226;-70
2022/07/12 10:18:17;;;;;;;2.60;1.00;;;21.40;99.90;;;;;;5014650;28;20207;-70
2022/07/12 10:20:45;;;;;;;1.30;0.80;;;21.40;99.90;;;;;;5011720;28;20651;-69
2022/07/12 10:23:36;;;;;;;3.08;0.85;;;21.40;99.90;;;;;;5011235;28;20219;-69
2022/07/12 10:26:37;;;;;;;1.38;0.70;;;21.40;99.90;;;;;;5011889;28;20625;-68
2022/07/12 10:29:05;;;;;;;2.55;0.98;;;21.30;99.90;;;;;;5012764;28;20272;-69
2022/07/12 10:31:35;;;;;;;0.88;0.82;;;21.30;99.90;;;;;;5012747;28;20222;-70
2022/07/12 10:34:20;;;;;;;3.53;0.90;;;21.30;99.90;;;;;;5015879;28;20250;-69
2022/07/12 10:37:13;;;;;;;2.33;0.98;;;21.40;99.90;;;;;;5016552;28;20199;-70
2022/07/12 10:39:41;;;;;;;0.88;0.77;;;21.50;99.90;;;;;;5011249;28;20203;-68
2022/07/12 10:42:15;;;;;;;0.88;0.80;;;21.50;99.90;;;;;;5015306;28;20207;-69
2022/07/12 10:44:45;;;;;;;1.33;0.80;;;21.50;99.90;;;;;;5016353;28;20202;-69
2022/07/12 10:47:14;;;;;;;2.38;1.20;;;21.50;99.90;;;;;;5017650;28;20250;-69
2022/07/12 10:49:48;;;;;;;3.47;1.00;;;21.60;99.90;;;;;;5017173;28;20199;-69
2022/07/12 10:52:17;;;;;;;2.30;0.80;;;21.60;99.90;;;;;;5018241;28;20206;-69
2022/07/12 10:54:50;;;;;;;2.42;0.70;;;21.60;99.90;;;;;;5017601;28;20694;-68
2022/07/12 10:57:17;;;;;;;1.92;0.80;;;21.50;99.90;;;;;;5017027;28;20663;-69
2022/07/12 10:59:50;;;;;;;0.98;0.80;;;21.40;99.90;;;;;;5014471;28;20211;-69
2022/07/12 11:02:18;;;;;;;1.45;0.80;;;21.40;99.90;;;;;;5015112;28;20227;-69
2022/07/12 11:04:48;;;;;;;1.08;0.60;;;21.30;99.90;;;;;;5016454;28;20557;-69
2022/07/12 11:07:18;;;;;;;1.08;0.90;;;21.20;99.90;;;;;;5015527;28;20203;-69
2022/07/12 11:09:51;;;;;;;1.13;0.70;;;21.20;99.90;;;;;;5015919;28;20798;-69
2022/07/12 11:12:18;;;;;;;1.02;0.68;;;21.20;99.90;;;;;;5016105;28;20226;-69
2022/07/12 11:14:46;;;;;;;1.35;0.70;;;21.20;99.90;;;;;;5015595;28;20230;-69
2022/07/12 11:17:13;;;;;;;1.63;0.50;;;21.10;99.90;;;;;;5015904;28;20277;-69
2022/07/12 11:19:40;;;;;;;1.52;0.90;;;21.10;99.90;;;;;;5017092;28;20203;-69
2022/07/12 11:22:07;;;;;;;3.67;0.90;;;21.00;99.90;;;;;;5016214;28;20538;-70
2022/07/12 11:24:35;;;;;;;1.10;0.80;;;21.00;99.90;;;;;;5016406;28;20655;-70
2022/07/12 11:27:04;;;;;;;2.97;1.55;;;21.00;99.90;;;;;;5016201;28;20270;-70
2022/07/12 11:29:32;;;;;;;0.68;0.45;;;21.10;99.90;;;;;;5017063;28;20564;-69
2022/07/12 11:32:03;;;;;;;2.55;0.70;;;21.20;99.90;;;;;;5017881;28;20215;-69
2022/07/12 11:34:30;;;;;;;0.82;0.57;;;21.20;99.90;;;;;;5016866;28;20353;-70
2022/07/12 11:36:58;;;;;;;1.58;0.55;;;21.20;99.90;;;;;;5016103;28;20219;-70
2022/07/12 11:39:33;;;;;;;0.95;0.60;;;21.20;99.90;;;;;;5015138;28;20218;-70
2022/07/12 11:42:00;;;;;;;2.75;0.70;;;21.20;99.90;;;;;;5015290;28;20217;-69
2022/07/12 11:47:33;;;;;;;1.77;0.50;;;21.20;99.90;;;;;;5082942;28;21079;-70
2022/07/12 11:50:00;;;;;;;1.02;0.80;;;21.20;99.90;;;;;;5070850;28;20221;-70
2022/07/12 11:52:28;;;;;;;2.30;0.68;;;21.20;99.90;;;;;;5063882;28;20576;-71
2022/07/12 11:54:54;;;;;;;4.38;0.70;;;21.20;99.90;;;;;;5064200;28;20217;-69
2022/07/12 11:57:23;;;;;;;0.82;0.57;;;21.20;99.90;;;;;;5070896;28;20207;-69
2022/07/12 11:59:50;;;;;;;2.55;0.73;;;21.30;99.90;;;;;;5070162;28;20209;-70
2022/07/12 12:02:17;;;;;;;1.45;0.60;;;21.30;99.90;;;;;;5067159;28;20205;-70
2022/07/12 12:04:47;;;;;;;3.22;0.70;;;21.30;99.90;;;;;;5070693;28;20231;-70
2022/07/12 12:07:16;;;;;;;3.47;0.93;;;21.30;99.90;;;;;;5070475;28;20229;-70
2022/07/12 12:10:02;;;;;;;2.13;1.02;;;21.20;99.90;;;;;;5070067;28;20270;-70
2022/07/12 12:12:36;;;;;;;1.65;0.57;;;21.30;99.90;;;;;;5070689;28;20214;-70
2022/07/12 12:15:05;;;;;;;1.23;0.80;;;21.30;99.90;;;;;;5071455;28;20662;-70
2022/07/12 12:17:32;;;;;;;0.57;0.50;;;21.30;99.90;;;;;;5070752;28;20193;-71
2022/07/12 12:20:09;;;;;;;3.17;0.60;;;21.40;99.90;;;;;;5070258;28;20210;-71
2022/07/12 12:22:37;;;;;;;0.55;0.55;;;21.50;99.90;;;;;;5070402;28;20602;-70
2022/07/12 12:25:06;;;;;;;1.95;0.82;;;21.40;99.60;;;;;;5069590;28;20229;-70
2022/07/12 12:27:34;;;;;;;1.75;0.85;;;21.40;99.60;;;;;;5056620;28;20240;-73
2022/07/12 12:30:06;;;;;;;0.93;0.63;;;21.50;99.80;;;;;;5070228;28;20201;-72
2022/07/12 12:32:44;;;;;;;1.42;0.68;;;21.40;99.70;;;;;;5056010;28;20588;-72
2022/07/12 12:35:14;;;;;;;1.17;0.90;;;21.40;99.70;;;;;;5057100;28;20207;-73
2022/07/12 12:37:41;;;;;;;2.70;0.50;;;21.40;99.90;;;;;;5070891;28;20205;-70
2022/07/12 12:40:08;;;;;;;2.03;0.63;;;21.40;99.80;;;;;;5069518;28;20205;-70
2022/07/12 12:42:36;;;;;;;3.38;1.08;;;21.40;99.80;;;;;;5068364;28;20228;-70
2022/07/12 12:45:03;;;;;;;1.00;0.70;;;21.40;99.80;;;;;;5069513;28;20209;-70
2022/07/12 12:47:34;;;;;;;1.42;0.80;;;21.40;99.70;;;;;;5068471;28;20233;-70
2022/07/12 12:50:01;;;;;;;2.80;0.90;;;21.50;99.80;;;;;;5069747;28;20216;-70
2022/07/12 12:52:31;;;;;;;2.80;0.80;;;21.40;99.30;;;;;;5069901;28;20213;-71
2022/07/12 12:54:58;;;;;;;1.63;0.80;;;21.30;99.30;;;;;;5069745;28;20571;-70
2022/07/12 12:57:25;;;;;;;0.82;0.60;;;21.30;99.20;;;;;;5063280;28;20198;-71
2022/07/12 12:59:53;;;;;;;0.50;0.50;;;21.30;99.30;;;;;;5055901;28;20214;-70
2022/07/12 13:02:22;;;;;;;2.58;0.85;;;21.20;99.40;;;;;;5056037;28;20206;-69
2022/07/12 13:04:49;;;;;;;1.85;0.50;;;21.30;99.40;;;;;;5056247;28;20259;-70
2022/07/12 13:07:15;;;;;;;3.13;0.90;;;21.20;99.40;;;;;;5055230;28;20316;-70